.
WxDataArchive / Data Records for 2010-04-30
2010-04-29 April 2010 2010-05-01

Data Records for Friday, 30 April 2010

Time	Temp	Chill	HIndex	Humid	Dewpt	 Wind 	HiWind	WindDir	Rain 	Barom 
-----	----	-----	------	-----	-----	------	------	-------	-----	----- 
00:00	62.1	62.1	62.1	58	47.1	0	3	315	0.00	29.667 
00:05	62.1	62.1	62.1	58	47.1	0	2	0	0.00	29.667 
00:10	62.0	62.0	62.0	58	47.0	0	2	0	0.00	29.667 
00:15	62.0	62.0	62.0	58	47.0	1	6	270	0.00	29.661 
00:20	62.0	62.0	62.0	58	47.0	1	4	68	0.00	29.661 
00:25	62.0	62.0	62.0	58	47.0	1	7	90	0.00	29.661 
00:30	62.0	62.0	62.0	58	47.0	1	4	225	0.00	29.657 
00:35	62.0	62.0	62.0	58	47.0	1	4	202	0.00	29.657 
00:40	62.0	62.0	62.0	58	47.0	1	4	90	0.00	29.657 
00:45	62.0	62.0	62.0	58	47.0	1	5	248	0.00	29.653 
00:50	62.0	62.0	62.0	58	47.0	0	4	90	0.00	29.653 
00:55	62.0	62.0	62.0	58	47.0	1	3	338	0.00	29.653 
01:00	62.1	62.1	62.1	58	47.1	1	4	270	0.00	29.652 
01:05	62.1	62.1	62.1	58	47.1	1	6	248	0.00	29.652 
01:10	62.1	62.1	62.1	58	47.1	1	5	292	0.00	29.652 
01:15	62.1	62.1	62.1	58	47.1	1	4	135	0.00	29.651 
01:20	62.3	62.3	62.3	58	47.3	1	5	270	0.00	29.651 
01:25	62.3	62.3	62.3	58	47.3	0	4	225	0.00	29.651 
01:30	62.3	62.3	62.3	58	47.3	1	3	248	0.00	29.651 
01:35	62.3	62.3	62.3	58	47.3	0	2	248	0.00	29.651 
01:40	62.1	62.1	62.1	59	47.6	0	3	68	0.00	29.651 
01:45	62.1	62.1	62.1	59	47.6	1	4	68	0.00	29.651 
01:50	62.3	62.3	62.3	59	47.8	1	3	270	0.00	29.651 
01:55	62.4	62.4	62.4	58	47.4	1	5	225	0.00	29.651 
02:00	62.4	62.4	62.4	59	47.9	0	3	292	0.00	29.651 
02:05	62.6	62.6	62.6	58	47.6	2	5	248	0.00	29.651 
02:10	62.7	62.7	62.7	58	47.7	1	2	248	0.00	29.651 
02:15	62.7	62.7	62.7	58	47.7	1	6	248	0.00	29.651 
02:20	62.6	62.6	62.6	59	48.1	1	3	248	0.00	29.651 
02:25	62.6	62.6	62.6	59	48.1	1	5	248	0.00	29.651 
02:30	62.6	62.6	62.6	59	48.1	1	3	225	0.00	29.651 
02:35	62.6	62.6	62.6	59	48.1	1	3	202	0.00	29.651 
02:40	62.4	62.4	62.4	59	47.9	1	6	270	0.00	29.651 
02:45	62.4	62.4	62.4	59	47.9	1	3	90	0.00	29.654 
02:50	62.4	62.4	62.4	60	48.3	1	3	90	0.00	29.654 
02:55	62.4	62.4	62.4	60	48.3	1	5	248	0.00	29.654 
03:00	62.4	62.4	62.4	60	48.3	1	4	248	0.00	29.656 
03:05	62.4	62.4	62.4	60	48.3	0	3	248	0.00	29.656 
03:10	62.3	62.3	62.3	61	48.7	0	4	248	0.00	29.656 
03:15	62.1	62.1	62.1	61	48.5	0	2	248	0.00	29.659 
03:20	61.8	61.8	61.8	61	48.2	0	2	248	0.00	29.659 
03:25	61.8	61.8	61.8	62	48.6	0	3	248	0.00	29.659 
03:30	61.6	61.6	61.6	62	48.4	0	2	270	0.00	29.664 
03:35	61.5	61.5	61.5	62	48.4	0	1	270	0.00	29.664 
03:40	61.5	61.5	61.5	62	48.4	0	2	270	0.00	29.664 
03:45	61.3	61.3	61.3	63	48.6	0	3	270	0.00	29.672 
03:50	61.2	61.2	61.2	63	48.5	0	1	270	0.00	29.672 
03:55	61.0	61.0	61.0	63	48.3	0	1	270	0.00	29.672 
04:00	60.9	60.9	60.9	64	48.6	0	0	---	0.00	29.679 
04:05	60.5	60.5	60.5	64	48.3	0	0	---	0.00	29.679 
04:10	60.4	60.4	60.4	65	48.6	0	1	270	0.00	29.679 
04:15	60.1	60.1	60.1	65	48.3	0	0	---	0.00	29.681 
04:20	59.9	59.9	59.9	66	48.5	0	0	---	0.00	29.681 
04:25	59.5	59.5	59.5	67	48.5	0	0	---	0.00	29.681 
04:30	59.2	59.2	59.2	68	48.6	0	1	270	0.00	29.692 
04:35	59.0	59.0	59.0	69	48.8	0	0	---	0.00	29.692 
04:40	58.7	58.7	58.7	69	48.6	0	0	---	0.00	29.692 
04:45	58.3	58.3	58.3	70	48.6	0	0	---	0.00	29.695 
04:50	58.0	58.0	58.0	71	48.6	0	1	270	0.00	29.695 
04:55	57.5	57.5	57.5	72	48.5	0	0	---	0.00	29.695 
05:00	57.2	57.2	57.2	73	48.6	0	0	---	0.00	29.693 
05:05	56.9	56.9	56.9	74	48.7	0	0	---	0.00	29.693 
05:10	56.7	56.7	56.7	74	48.5	0	0	---	0.00	29.693 
05:15	56.6	56.6	56.6	75	48.8	0	0	---	0.00	29.692 
05:20	56.5	56.5	56.5	75	48.7	0	0	---	0.00	29.692 
05:25	56.3	56.3	56.3	76	48.8	0	1	270	0.00	29.692 
05:30	56.2	56.2	56.2	76	48.7	0	1	270	0.00	29.691 
05:35	56.0	56.0	56.0	77	48.9	0	0	---	0.00	29.691 
05:40	55.9	55.9	55.9	77	48.8	0	0	---	0.00	29.691 
05:45	55.7	55.7	55.7	77	48.6	0	0	---	0.00	29.689 
05:50	55.6	55.6	55.6	78	48.8	0	0	---	0.00	29.689 
05:55	55.3	55.3	55.3	78	48.6	0	0	---	0.00	29.689 
06:00	55.1	55.1	55.1	79	48.7	0	0	---	0.00	29.691 
06:05	55.0	55.0	55.0	80	48.9	0	0	---	0.00	29.691 
06:10	54.7	54.7	54.7	80	48.7	0	0	---	0.00	29.691 
06:15	54.5	54.5	54.5	81	48.8	0	0	---	0.00	29.698 
06:20	54.2	54.2	54.2	81	48.5	0	0	---	0.00	29.698 
06:25	54.1	54.1	54.1	82	48.7	0	0	---	0.00	29.698 
06:30	53.8	53.8	53.8	82	48.4	0	0	---	0.00	29.698 
06:35	53.6	53.6	53.6	83	48.6	0	0	---	0.00	29.698 
06:40	53.5	53.5	53.5	83	48.5	0	0	---	0.00	29.698 
06:45	53.3	53.3	53.3	84	48.6	0	0	---	0.00	29.700 
06:50	53.2	53.2	53.2	84	48.5	0	0	---	0.00	29.700 
06:55	53.2	53.2	53.2	84	48.5	0	0	---	0.00	29.700 
07:00	53.1	53.1	53.1	85	48.7	0	0	---	0.00	29.700 
07:05	53.2	53.2	53.2	85	48.8	0	0	---	0.00	29.700 
07:10	53.5	53.5	53.5	85	49.1	0	0	---	0.00	29.700 
07:15	53.8	53.8	53.8	84	49.1	0	0	---	0.00	29.702 
07:20	53.9	53.9	53.9	84	49.2	0	0	---	0.00	29.702 
07:25	54.1	54.1	54.1	84	49.4	0	0	---	0.00	29.702 
07:30	54.4	54.4	54.4	84	49.7	0	0	---	0.00	29.711 
07:35	54.7	54.7	54.7	84	50.0	0	0	---	0.00	29.711 
07:40	55.3	55.3	55.3	83	50.2	0	0	---	0.00	29.711 
07:45	56.2	56.2	56.2	81	50.4	0	0	---	0.00	29.715 
07:50	57.2	57.2	57.2	79	50.7	0	1	270	0.00	29.715 
07:55	58.3	58.3	58.3	77	51.1	0	1	270	0.00	29.715 
08:00	59.5	59.5	59.5	74	51.2	0	3	270	0.00	29.714 
08:05	60.5	60.5	60.5	72	51.4	0	2	270	0.00	29.714 
08:10	61.3	61.3	61.3	70	51.4	1	4	45	0.00	29.714 
08:15	62.0	62.0	62.0	70	52.1	0	4	180	0.00	29.707 
08:20	62.6	62.6	62.6	68	51.9	1	3	112	0.00	29.707 
08:25	63.1	63.1	63.1	67	52.0	0	2	90	0.00	29.707 
08:30	63.5	63.5	63.5	65	51.5	1	4	90	0.00	29.697 
08:35	64.0	64.0	64.0	65	52.0	1	4	90	0.00	29.697 
08:40	64.3	64.3	64.3	65	52.3	0	2	112	0.00	29.697 
08:45	64.8	64.8	64.8	64	52.3	1	4	68	0.00	29.695 
08:50	65.0	65.0	65.0	64	52.5	1	7	270	0.00	29.695 
08:55	65.5	65.5	65.5	63	52.6	1	5	270	0.00	29.695 
09:00	65.8	65.8	65.8	62	52.4	2	6	270	0.00	29.694 
09:05	66.1	66.1	66.1	62	52.7	2	11	248	0.00	29.694 
09:10	66.4	66.4	66.4	61	52.5	1	5	270	0.00	29.694 
09:15	66.8	66.8	66.8	61	52.9	1	5	248	0.00	29.697 
09:20	67.1	67.1	67.1	59	52.3	2	6	292	0.00	29.697 
09:25	67.4	67.4	67.4	60	53.0	1	7	270	0.00	29.697 
09:30	68.1	68.1	68.1	58	52.8	2	7	270	0.00	29.694 
09:35	68.4	68.4	68.4	58	53.0	2	10	270	0.00	29.694 
09:40	68.4	68.4	68.4	58	53.0	3	6	270	0.00	29.694 
09:45	68.8	68.8	68.8	58	53.4	3	7	270	0.00	29.691 
09:50	68.9	68.9	68.9	59	54.0	2	7	248	0.00	29.691 
09:55	69.3	69.3	69.3	56	52.9	3	10	270	0.00	29.691 
10:00	69.8	69.8	69.8	57	53.9	2	6	248	0.00	29.690 
10:05	70.3	70.3	70.3	55	53.4	2	6	270	0.00	29.690 
10:10	70.4	70.4	70.4	54	52.9	3	8	248	0.00	29.690 
10:15	70.4	70.4	70.4	55	53.4	3	10	248	0.00	29.691 
10:20	70.6	70.6	70.6	54	53.1	3	10	248	0.00	29.691 
10:25	70.9	70.9	70.9	54	53.4	3	9	292	0.00	29.691 
10:30	71.1	71.1	71.1	56	54.6	3	12	248	0.00	29.692 
10:35	71.3	71.3	71.3	55	54.3	4	10	270	0.00	29.692 
10:40	71.1	71.1	71.1	55	54.1	4	9	248	0.00	29.692 
10:45	71.3	71.3	71.3	55	54.3	3	10	248	0.00	29.688 
10:50	72.0	72.0	72.0	55	54.9	3	11	225	0.00	29.688 
10:55	72.3	72.3	72.3	53	54.2	3	11	270	0.00	29.688 
11:00	72.5	72.5	72.5	54	54.9	3	9	270	0.00	29.691 
11:05	72.7	72.7	72.7	53	54.6	2	7	248	0.00	29.691 
11:10	72.8	72.8	72.8	53	54.7	4	11	248	0.00	29.691 
11:15	73.5	73.5	73.5	54	55.8	2	5	270	0.00	29.692 
11:20	73.9	73.9	73.9	53	55.7	2	7	292	0.00	29.692 
11:25	74.0	74.0	74.0	52	55.2	3	10	270	0.00	29.692 
11:30	74.0	74.0	74.0	53	55.8	3	9	248	0.00	29.692 
11:35	74.2	74.2	74.2	53	56.0	3	7	270	0.00	29.692 
11:40	74.6	74.6	74.6	51	55.3	3	9	270	0.00	29.692 
11:45	74.7	74.7	74.7	51	55.4	3	9	270	0.00	29.692 
11:50	74.9	74.9	74.9	51	55.5	3	7	248	0.00	29.692 
11:55	75.1	75.1	77.6	52	56.3	2	5	248	0.00	29.692 
12:00	75.3	75.3	77.7	51	55.9	3	7	248	0.00	29.693 
12:05	75.3	75.3	77.7	51	55.9	3	9	225	0.00	29.693 
12:10	75.4	75.4	77.8	51	56.0	2	7	248	0.00	29.693 
12:15	75.6	75.6	77.9	51	56.2	3	9	270	0.00	29.690 
12:20	76.0	76.0	78.1	50	56.0	3	9	248	0.00	29.690 
12:25	75.8	75.8	78.0	50	55.8	3	8	270	0.00	29.690 
12:30	75.4	75.4	77.8	51	56.0	4	12	270	0.00	29.689 
12:35	75.6	75.6	77.9	52	56.7	3	6	248	0.00	29.689 
12:40	76.0	76.0	78.1	52	57.1	2	5	248	0.00	29.689 
12:45	76.1	76.1	78.1	50	56.1	3	7	292	0.00	29.685 
12:50	76.5	76.5	78.4	53	58.1	2	9	270	0.00	29.685 
12:55	76.7	76.7	78.4	49	56.1	3	10	270	0.00	29.685 
13:00	76.5	76.5	78.3	51	57.0	3	9	248	0.00	29.677 
13:05	76.8	76.8	78.5	52	57.8	2	10	248	0.00	29.677 
13:10	77.0	77.0	78.6	51	57.5	3	11	248	0.00	29.677 
13:15	77.2	77.2	78.7	48	56.0	3	9	270	0.00	29.673 
13:20	77.4	77.4	78.8	50	57.3	3	7	270	0.00	29.673 
13:25	77.4	77.4	78.8	48	56.1	3	7	248	0.00	29.673 
13:30	77.4	77.4	78.9	52	58.4	2	6	248	0.00	29.672 
13:35	77.4	77.4	78.8	50	57.3	3	7	270	0.00	29.672 
13:40	77.2	77.2	78.7	49	56.5	5	12	270	0.00	29.672 
13:45	76.8	76.8	78.5	50	56.7	3	7	248	0.00	29.673 
13:50	76.8	76.8	78.5	51	57.3	3	13	248	0.00	29.673 
13:55	76.7	76.7	78.4	50	56.6	3	7	270	0.00	29.673 
14:00	76.7	76.7	78.5	52	57.7	2	6	248	0.00	29.669 
14:05	76.5	76.5	78.3	51	57.0	3	10	248	0.00	29.669 
14:10	76.3	76.3	78.2	51	56.8	3	7	270	0.00	29.669 
14:15	76.1	76.1	78.1	51	56.6	3	9	270	0.00	29.666 
14:20	76.0	76.0	78.1	53	57.6	3	7	270	0.00	29.666 
14:25	76.3	76.3	78.2	53	57.9	3	6	248	0.00	29.666 
14:30	77.0	77.0	78.7	52	58.0	2	7	248	0.00	29.661 
14:35	76.8	76.8	78.5	51	57.3	3	18	270	0.00	29.661 
14:40	76.5	76.5	78.4	52	57.5	3	9	270	0.00	29.661 
14:45	76.1	76.1	78.1	52	57.2	2	5	248	0.00	29.660 
14:50	76.3	76.3	78.2	52	57.4	2	11	248	0.00	29.660 
14:55	76.7	76.7	78.5	52	57.7	2	8	248	0.00	29.660 
15:00	77.0	77.0	78.7	53	58.5	2	6	270	0.00	29.657 
15:05	77.2	77.2	78.7	51	57.6	3	10	248	0.00	29.657 
15:10	77.9	77.9	79.2	51	58.3	3	7	248	0.00	29.657 
15:15	78.3	78.3	79.5	51	58.7	4	11	270	0.00	29.658 
15:20	77.9	77.9	79.2	50	57.7	4	12	270	0.00	29.658 
15:25	77.7	77.7	79.1	52	58.6	2	6	248	0.00	29.658 
15:30	77.2	77.2	78.8	52	58.2	4	11	270	0.00	29.657 
15:35	77.6	77.6	79.1	53	59.1	2	6	270	0.00	29.657 
15:40	78.3	78.3	79.6	53	59.7	2	5	270	0.00	29.657 
15:45	78.3	78.3	79.5	51	58.7	4	11	248	0.00	29.658 
15:50	77.9	77.9	79.3	53	59.4	4	13	248	0.00	29.658 
15:55	78.1	78.1	79.4	52	59.0	3	10	248	0.00	29.658 
16:00	78.5	78.5	79.6	51	58.8	4	12	270	0.00	29.651 
16:05	78.5	78.5	79.8	54	60.4	3	10	248	0.00	29.651 
16:10	78.6	78.6	79.9	54	60.5	2	6	292	0.00	29.651 
16:15	78.3	78.3	79.5	51	58.7	3	10	292	0.00	29.649 
16:20	78.3	78.3	79.6	52	59.2	3	10	270	0.00	29.649 
16:25	78.5	78.5	79.7	52	59.4	2	7	248	0.00	29.649 
16:30	78.6	78.6	79.7	51	58.9	3	9	270	0.00	29.645 
16:35	78.8	78.8	80.0	53	60.2	2	12	270	0.00	29.645 
16:40	78.5	78.5	79.7	52	59.4	3	10	270	0.00	29.645 
16:45	78.3	78.3	79.6	52	59.2	3	9	68	0.00	29.642 
16:50	78.5	78.5	79.8	53	59.9	3	6	248	0.00	29.642 
16:55	78.8	78.8	79.9	52	59.7	3	10	270	0.00	29.642 
17:00	78.6	78.6	79.7	51	58.9	5	12	248	0.00	29.632 
17:05	78.6	78.6	79.8	52	59.5	3	10	248	0.00	29.632 
17:10	78.6	78.6	79.8	53	60.0	4	12	248	0.00	29.632 
17:15	78.6	78.6	79.8	52	59.5	4	12	270	0.00	29.629 
17:20	78.8	78.8	79.9	51	59.1	3	10	270	0.00	29.629 
17:25	79.0	79.0	80.0	51	59.3	2	6	248	0.00	29.629 
17:30	78.8	78.8	79.9	52	59.7	2	11	270	0.00	29.628 
17:35	78.8	78.8	80.0	53	60.2	2	9	225	0.00	29.628 
17:40	78.8	78.8	79.9	52	59.7	3	6	270	0.00	29.628 
17:45	79.2	79.2	80.3	52	60.0	3	9	248	0.00	29.626 
17:50	78.8	78.8	79.9	52	59.7	4	11	248	0.00	29.626 
17:55	78.8	78.8	79.9	51	59.1	3	6	248	0.00	29.626 
18:00	79.2	79.2	80.3	52	60.0	2	6	270	0.00	29.626 
18:05	79.2	79.2	80.2	51	59.5	3	9	270	0.00	29.626 
18:10	79.2	79.2	80.1	50	58.9	3	7	248	0.00	29.626 
18:15	78.8	78.8	79.9	51	59.1	3	10	270	0.00	29.631 
18:20	78.8	78.8	80.0	53	60.2	2	6	248	0.00	29.631 
18:25	78.6	78.6	79.7	51	58.9	2	9	248	0.00	29.631 
18:30	78.5	78.5	79.6	51	58.8	4	9	248	0.00	29.630 
18:35	78.3	78.3	79.5	51	58.7	3	8	248	0.00	29.630 
18:40	78.5	78.5	79.6	51	58.8	3	7	248	0.00	29.630 
18:45	78.3	78.3	79.6	52	59.2	4	14	248	0.00	29.631 
18:50	78.3	78.3	79.6	53	59.7	2	7	292	0.00	29.631 
18:55	78.3	78.3	79.6	53	59.7	2	5	248	0.00	29.631 
19:00	78.3	78.3	79.6	52	59.2	4	13	270	0.00	29.629 
19:05	78.5	78.5	79.7	52	59.4	2	9	248	0.00	29.629 
19:10	78.5	78.5	79.6	51	58.8	3	11	248	0.00	29.629 
19:15	78.3	78.3	79.6	52	59.2	2	6	248	0.00	29.623 
19:20	78.3	78.3	79.6	52	59.2	2	5	270	0.00	29.623 
19:25	78.1	78.1	79.4	52	59.0	2	6	248	0.00	29.623 
19:30	77.9	77.9	79.2	51	58.3	2	8	225	0.00	29.625 
19:35	77.7	77.7	79.1	51	58.1	3	9	270	0.00	29.625 
19:40	77.7	77.7	79.1	51	58.1	2	6	248	0.00	29.625 
19:45	77.6	77.6	79.0	51	58.0	1	5	248	0.00	29.627 
19:50	77.6	77.6	79.0	51	58.0	1	9	248	0.00	29.627 
19:55	77.4	77.4	78.9	52	58.4	2	6	248	0.00	29.627 
20:00	77.2	77.2	78.8	52	58.2	2	8	248	0.00	29.631 
20:05	77.0	77.0	78.7	52	58.0	1	3	248	0.00	29.631 
20:10	76.8	76.8	78.5	53	58.4	0	1	248	0.00	29.631 
20:15	76.3	76.3	78.3	54	58.4	0	1	248	0.00	29.630 
20:20	76.0	76.0	78.1	55	58.6	0	2	248	0.00	29.630 
20:25	75.6	75.6	77.8	55	58.3	0	1	248	0.00	29.630 
20:30	75.3	75.3	77.7	56	58.5	0	1	248	0.00	29.638 
20:35	74.9	74.9	74.9	56	58.1	0	2	248	0.00	29.638 
20:40	74.9	74.9	74.9	56	58.1	0	2	248	0.00	29.638 
20:45	74.7	74.7	74.7	56	57.9	1	4	248	0.00	29.648 
20:50	74.9	74.9	74.9	56	58.1	1	3	248	0.00	29.648 
20:55	74.9	74.9	74.9	55	57.6	1	4	248	0.00	29.648 
21:00	74.9	74.9	74.9	55	57.6	1	4	248	0.00	29.656 
21:05	74.9	74.9	74.9	56	58.1	0	2	270	0.00	29.656 
21:10	74.7	74.7	74.7	56	57.9	0	1	270	0.00	29.656 
21:15	74.6	74.6	74.6	57	58.3	0	1	270	0.00	29.661 
21:20	74.6	74.6	74.6	56	57.8	0	1	270	0.00	29.661 
21:25	74.6	74.6	74.6	57	58.3	0	2	270	0.00	29.661 
21:30	74.6	74.6	74.6	57	58.3	0	0	---	0.00	29.669 
21:35	74.2	74.2	74.2	58	58.5	0	0	---	0.00	29.669 
21:40	74.0	74.0	74.0	59	58.7	0	2	270	0.00	29.669 
21:45	73.9	73.9	73.9	59	58.7	0	1	270	0.00	29.670 
21:50	73.9	73.9	73.9	58	58.2	0	3	68	0.00	29.670 
21:55	73.7	73.7	73.7	58	58.0	0	1	68	0.00	29.670 
22:00	73.7	73.7	73.7	58	58.0	0	1	68	0.00	29.667 
22:05	73.5	73.5	73.5	58	57.8	0	2	68	0.00	29.667 
22:10	73.5	73.5	73.5	58	57.8	0	3	68	0.00	29.667 
22:15	73.5	73.5	73.5	58	57.8	0	1	68	0.00	29.665 
22:20	73.5	73.5	73.5	58	57.8	0	2	68	0.00	29.665 
22:25	73.5	73.5	73.5	57	57.3	0	5	112	0.00	29.665 
22:30	73.5	73.5	73.5	58	57.8	0	1	112	0.00	29.667 
22:35	73.3	73.3	73.3	58	57.6	0	1	112	0.00	29.667 
22:40	73.3	73.3	73.3	58	57.6	0	2	112	0.00	29.667 
22:45	73.3	73.3	73.3	58	57.6	1	6	270	0.00	29.671 
22:50	73.3	73.3	73.3	58	57.6	0	3	248	0.00	29.671 
22:55	73.5	73.5	73.5	58	57.8	1	4	68	0.00	29.671 
23:00	73.5	73.5	73.5	58	57.8	0	2	68	0.00	29.675 
23:05	73.5	73.5	73.5	57	57.3	1	4	248	0.00	29.675 
23:10	73.5	73.5	73.5	58	57.8	0	3	248	0.00	29.675 
23:15	73.3	73.3	73.3	58	57.6	0	4	112	0.00	29.678 
23:20	73.3	73.3	73.3	58	57.6	0	2	112	0.00	29.678 
23:25	73.3	73.3	73.3	57	57.1	2	5	90	0.00	29.678 
23:30	73.3	73.3	73.3	58	57.6	0	2	135	0.00	29.664 
23:35	73.0	73.0	73.0	58	57.3	0	1	135	0.00	29.664 
23:40	72.7	72.7	72.7	59	57.5	0	1	135	0.00	29.664 
23:45	72.3	72.3	72.3	59	57.2	0	1	135	0.00	29.658 
23:50	72.0	72.0	72.0	60	57.3	0	1	135	0.00	29.658 
23:55	71.8	71.8	71.8	60	57.2	1	3	90	0.00	29.658 

CoCoRaHS
IN-AL-39
A2 Web Hosting
Creative Commons License
GoDaddy
search engine by freefind advanced

loaded 2018-11-12 14:48:51 • last modified 2010-11-18 10:43:29
Privacy PolicyDisclaimer
• wx.awcolley.com is powered by PmWiki v.2002016 •
• all content (unless otherwise noted) © 2018 A W Colley